sensor_id;sensor_type;location;lat;lon;timestamp;pressure;altitude;pressure_sealevel;temperature;humidity
3590;BME280;1809;48.470;9.226;2022-09-09T00:00:26;96552.16;;;15.10;100.00
3590;BME280;1809;48.470;9.226;2022-09-09T00:02:59;96548.97;;;15.17;100.00
3590;BME280;1809;48.470;9.226;2022-09-09T00:05:58;96548.22;;;15.07;100.00
3590;BME280;1809;48.470;9.226;2022-09-09T00:08:48;96542.84;;;15.07;100.00
3590;BME280;1809;48.470;9.226;2022-09-09T00:11:24;96542.38;;;15.05;100.00
3590;BME280;1809;48.470;9.226;2022-09-09T00:13:52;96529.56;;;15.02;100.00
3590;BME280;1809;48.470;9.226;2022-09-09T00:16:23;96526.44;;;15.00;100.00
3590;BME280;1809;48.470;9.226;2022-09-09T00:19:20;96524.63;;;15.04;100.00
3590;BME280;1809;48.470;9.226;2022-09-09T00:24:52;96527.31;;;15.04;100.00
3590;BME280;1809;48.470;9.226;2022-09-09T00:27:45;96528.25;;;15.08;100.00
3590;BME280;1809;48.470;9.226;2022-09-09T00:32:36;96523.00;;;15.12;100.00
3590;BME280;1809;48.470;9.226;2022-09-09T00:35:18;96518.28;;;15.09;100.00
3590;BME280;1809;48.470;9.226;2022-09-09T00:37:48;96530.50;;;15.27;100.00
3590;BME280;1809;48.470;9.226;2022-09-09T00:40:37;96529.94;;;15.22;100.00
3590;BME280;1809;48.470;9.226;2022-09-09T00:51:17;96533.53;;;15.26;100.00
3590;BME280;1809;48.470;9.226;2022-09-09T00:56:47;96528.53;;;15.16;100.00
3590;BME280;1809;48.470;9.226;2022-09-09T00:59:28;96520.38;;;15.03;100.00
3590;BME280;1809;48.470;9.226;2022-09-09T01:01:58;96519.44;;;14.99;100.00
3590;BME280;1809;48.470;9.226;2022-09-09T01:04:31;96524.19;;;15.02;100.00
3590;BME280;1809;48.470;9.226;2022-09-09T01:07:07;96531.53;;;14.93;100.00
3590;BME280;1809;48.470;9.226;2022-09-09T01:09:56;96532.03;;;14.87;100.00
3590;BME280;1809;48.470;9.226;2022-09-09T01:12:41;96523.66;;;14.80;100.00
3590;BME280;1809;48.470;9.226;2022-09-09T01:15:26;96518.50;;;14.75;100.00
3590;BME280;1809;48.470;9.226;2022-09-09T01:18:12;96515.97;;;14.70;100.00
3590;BME280;1809;48.470;9.226;2022-09-09T01:26:39;96515.19;;;14.69;100.00
3590;BME280;1809;48.470;9.226;2022-09-09T01:29:11;96506.84;;;14.62;100.00
3590;BME280;1809;48.470;9.226;2022-09-09T01:31:40;96515.41;;;14.56;100.00
3590;BME280;1809;48.470;9.226;2022-09-09T01:34:14;96515.25;;;14.52;100.00
3590;BME280;1809;48.470;9.226;2022-09-09T01:36:47;96516.56;;;14.46;100.00
3590;BME280;1809;48.470;9.226;2022-09-09T01:39:16;96510.22;;;14.42;100.00
3590;BME280;1809;48.470;9.226;2022-09-09T01:41:42;96510.88;;;14.39;100.00
3590;BME280;1809;48.470;9.226;2022-09-09T01:44:08;96511.06;;;14.34;100.00
3590;BME280;1809;48.470;9.226;2022-09-09T01:46:33;96512.50;;;14.23;100.00
3590;BME280;1809;48.470;9.226;2022-09-09T01:49:00;96522.63;;;14.26;100.00
3590;BME280;1809;48.470;9.226;2022-09-09T01:51:27;96523.53;;;14.30;100.00
3590;BME280;1809;48.470;9.226;2022-09-09T01:53:53;96515.00;;;14.28;100.00
3590;BME280;1809;48.470;9.226;2022-09-09T02:02:13;96524.41;;;14.13;100.00
3590;BME280;1809;48.470;9.226;2022-09-09T02:04:49;96530.44;;;14.10;100.00
3590;BME280;1809;48.470;9.226;2022-09-09T02:10:17;96525.16;;;14.14;100.00
3590;BME280;1809;48.470;9.226;2022-09-09T02:12:47;96528.47;;;14.28;100.00
3590;BME280;1809;48.470;9.226;2022-09-09T02:15:22;96520.59;;;14.14;100.00
3590;BME280;1809;48.470;9.226;2022-09-09T02:17:50;96521.06;;;14.08;100.00
3590;BME280;1809;48.470;9.226;2022-09-09T02:20:18;96528.03;;;14.09;100.00
3590;BME280;1809;48.470;9.226;2022-09-09T02:22:45;96530.91;;;14.04;100.00
3590;BME280;1809;48.470;9.226;2022-09-09T02:25:15;96532.00;;;14.02;100.00
3590;BME280;1809;48.470;9.226;2022-09-09T02:27:43;96527.09;;;14.05;100.00
3590;BME280;1809;48.470;9.226;2022-09-09T02:30:11;96534.69;;;14.11;100.00
3590;BME280;1809;48.470;9.226;2022-09-09T02:32:38;96544.19;;;14.09;100.00
3590;BME280;1809;48.470;9.226;2022-09-09T02:35:14;96539.09;;;14.16;100.00
3590;BME280;1809;48.470;9.226;2022-09-09T02:37:41;96546.03;;;14.17;100.00
3590;BME280;1809;48.470;9.226;2022-09-09T02:40:10;96543.84;;;14.19;100.00
3590;BME280;1809;48.470;9.226;2022-09-09T02:42:44;96553.63;;;14.23;100.00
3590;BME280;1809;48.470;9.226;2022-09-09T02:45:11;96551.88;;;14.27;100.00
3590;BME280;1809;48.470;9.226;2022-09-09T02:47:44;96557.75;;;14.38;100.00
3590;BME280;1809;48.470;9.226;2022-09-09T02:53:13;96551.72;;;14.41;100.00
3590;BME280;1809;48.470;9.226;2022-09-09T02:55:46;96554.38;;;14.49;100.00
3590;BME280;1809;48.470;9.226;2022-09-09T02:58:15;96553.59;;;14.49;100.00
3590;BME280;1809;48.470;9.226;2022-09-09T03:00:43;96546.75;;;14.60;100.00
3590;BME280;1809;48.470;9.226;2022-09-09T03:03:09;96549.59;;;14.55;100.00
3590;BME280;1809;48.470;9.226;2022-09-09T03:05:34;96545.97;;;14.51;100.00
3590;BME280;1809;48.470;9.226;2022-09-09T03:08:01;96547.75;;;14.47;100.00
3590;BME280;1809;48.470;9.226;2022-09-09T03:10:27;96556.47;;;14.44;100.00
3590;BME280;1809;48.470;9.226;2022-09-09T03:12:52;96553.00;;;14.35;100.00
3590;BME280;1809;48.470;9.226;2022-09-09T03:15:18;96550.63;;;14.25;100.00
3590;BME280;1809;48.470;9.226;2022-09-09T03:17:43;96545.09;;;14.21;100.00
3590;BME280;1809;48.470;9.226;2022-09-09T03:20:09;96555.69;;;14.18;100.00
3590;BME280;1809;48.470;9.226;2022-09-09T03:22:34;96560.13;;;14.14;100.00
3590;BME280;1809;48.470;9.226;2022-09-09T03:25:00;96564.41;;;14.15;100.00
3590;BME280;1809;48.470;9.226;2022-09-09T03:27:28;96568.69;;;14.16;100.00
3590;BME280;1809;48.470;9.226;2022-09-09T03:29:53;96567.56;;;14.17;100.00
3590;BME280;1809;48.470;9.226;2022-09-09T03:32:18;96572.19;;;14.16;100.00
3590;BME280;1809;48.470;9.226;2022-09-09T03:34:44;96568.69;;;14.16;100.00
3590;BME280;1809;48.470;9.226;2022-09-09T03:37:15;96569.34;;;14.13;100.00
3590;BME280;1809;48.470;9.226;2022-09-09T03:39:40;96571.06;;;14.09;100.00
3590;BME280;1809;48.470;9.226;2022-09-09T03:42:06;96566.00;;;13.98;100.00
3590;BME280;1809;48.470;9.226;2022-09-09T03:44:31;96564.31;;;13.94;100.00
3590;BME280;1809;48.470;9.226;2022-09-09T03:46:57;96549.88;;;13.98;100.00
3590;BME280;1809;48.470;9.226;2022-09-09T03:49:26;96561.91;;;13.92;100.00
3590;BME280;1809;48.470;9.226;2022-09-09T03:51:54;96550.19;;;14.06;100.00
3590;BME280;1809;48.470;9.226;2022-09-09T03:54:19;96551.16;;;14.10;100.00
3590;BME280;1809;48.470;9.226;2022-09-09T03:56:44;96544.19;;;14.09;100.00
3590;BME280;1809;48.470;9.226;2022-09-09T03:59:10;96532.94;;;14.15;100.00
3590;BME280;1809;48.470;9.226;2022-09-09T04:01:36;96527.88;;;14.14;100.00
3590;BME280;1809;48.470;9.226;2022-09-09T04:04:01;96523.88;;;14.20;100.00
3590;BME280;1809;48.470;9.226;2022-09-09T04:06:27;96523.47;;;14.09;100.00
3590;BME280;1809;48.470;9.226;2022-09-09T04:08:53;96533.91;;;14.02;100.00
3590;BME280;1809;48.470;9.226;2022-09-09T04:11:18;96532.19;;;13.97;100.00
3590;BME280;1809;48.470;9.226;2022-09-09T04:13:43;96540.72;;;13.82;100.00
3590;BME280;1809;48.470;9.226;2022-09-09T04:16:11;96541.38;;;13.79;100.00
3590;BME280;1809;48.470;9.226;2022-09-09T04:18:38;96543.59;;;13.77;100.00
3590;BME280;1809;48.470;9.226;2022-09-09T04:21:04;96543.59;;;13.77;100.00
3590;BME280;1809;48.470;9.226;2022-09-09T04:23:31;96534.44;;;13.61;100.00
3590;BME280;1809;48.470;9.226;2022-09-09T04:25:58;96524.19;;;13.63;100.00
3590;BME280;1809;48.470;9.226;2022-09-09T04:28:25;96523.22;;;13.59;100.00
3590;BME280;1809;48.470;9.226;2022-09-09T04:30:51;96525.28;;;13.62;100.00
3590;BME280;1809;48.470;9.226;2022-09-09T04:33:17;96532.88;;;13.60;100.00
3590;BME280;1809;48.470;9.226;2022-09-09T04:35:48;96538.38;;;13.64;100.00
3590;BME280;1809;48.470;9.226;2022-09-09T04:38:14;96541.09;;;13.72;100.00
3590;BME280;1809;48.470;9.226;2022-09-09T04:40:45;96534.13;;;13.71;100.00
3590;BME280;1809;48.470;9.226;2022-09-09T04:43:12;96533.31;;;13.71;100.00
3590;BME280;1809;48.470;9.226;2022-09-09T04:45:39;96532.53;;;13.70;100.00
3590;BME280;1809;48.470;9.226;2022-09-09T04:48:06;96527.94;;;13.71;100.00
3590;BME280;1809;48.470;9.226;2022-09-09T04:50:31;96536.19;;;13.57;100.00
3590;BME280;1809;48.470;9.226;2022-09-09T04:53:00;96537.94;;;13.53;100.00
3590;BME280;1809;48.470;9.226;2022-09-09T04:55:26;96539.97;;;13.56;100.00
3590;BME280;1809;48.470;9.226;2022-09-09T04:57:51;96536.19;;;13.48;100.00
3590;BME280;1809;48.470;9.226;2022-09-09T05:00:16;96541.09;;;13.46;100.00
3590;BME280;1809;48.470;9.226;2022-09-09T05:02:42;96536.50;;;13.56;100.00
3590;BME280;1809;48.470;9.226;2022-09-09T05:05:08;96531.91;;;13.56;100.00
3590;BME280;1809;48.470;9.226;2022-09-09T05:07:33;96524.31;;;13.58;100.00
3590;BME280;1809;48.470;9.226;2022-09-09T05:09:58;96519.09;;;13.62;100.00
3590;BME280;1809;48.470;9.226;2022-09-09T05:12:24;96528.44;;;13.64;100.00
3590;BME280;1809;48.470;9.226;2022-09-09T05:14:51;96530.34;;;13.72;100.00
3590;BME280;1809;48.470;9.226;2022-09-09T05:17:16;96530.94;;;13.78;100.00
3590;BME280;1809;48.470;9.226;2022-09-09T05:19:42;96533.78;;;13.81;100.00
3590;BME280;1809;48.470;9.226;2022-09-09T05:22:08;96542.00;;;13.93;100.00
3590;BME280;1809;48.470;9.226;2022-09-09T05:24:33;96540.09;;;14.02;100.00
3590;BME280;1809;48.470;9.226;2022-09-09T05:26:59;96546.72;;;14.05;100.00
3590;BME280;1809;48.470;9.226;2022-09-09T05:29:27;96543.34;;;14.17;100.00
3590;BME280;1809;48.470;9.226;2022-09-09T05:31:52;96547.13;;;14.33;100.00
3590;BME280;1809;48.470;9.226;2022-09-09T05:34:19;96554.72;;;14.39;100.00
3590;BME280;1809;48.470;9.226;2022-09-09T05:36:45;96555.81;;;14.47;100.00
3590;BME280;1809;48.470;9.226;2022-09-09T05:39:12;96563.06;;;14.55;100.00
3590;BME280;1809;48.470;9.226;2022-09-09T05:41:37;96564.31;;;14.58;100.00
3590;BME280;1809;48.470;9.226;2022-09-09T05:44:02;96563.66;;;14.69;100.00
3590;BME280;1809;48.470;9.226;2022-09-09T05:46:28;96573.88;;;14.76;100.00
3590;BME280;1809;48.470;9.226;2022-09-09T05:48:54;96571.69;;;14.78;100.00
3590;BME280;1809;48.470;9.226;2022-09-09T05:51:22;96567.13;;;14.99;100.00
3590;BME280;1809;48.470;9.226;2022-09-09T05:53:48;96568.22;;;15.06;100.00
3590;BME280;1809;48.470;9.226;2022-09-09T05:56:19;96580.53;;;15.37;100.00
3590;BME280;1809;48.470;9.226;2022-09-09T05:58:45;96588.66;;;15.78;100.00
3590;BME280;1809;48.470;9.226;2022-09-09T06:01:19;96578.47;;;16.17;100.00
3590;BME280;1809;48.470;9.226;2022-09-09T06:03:46;96569.97;;;16.84;100.00
3590;BME280;1809;48.470;9.226;2022-09-09T06:06:14;96577.69;;;17.58;100.00
3590;BME280;1809;48.470;9.226;2022-09-09T06:08:42;96577.03;;;17.89;100.00
3590;BME280;1809;48.470;9.226;2022-09-09T06:11:20;96582.72;;;17.71;100.00
3590;BME280;1809;48.470;9.226;2022-09-09T06:13:46;96581.09;;;17.43;100.00
3590;BME280;1809;48.470;9.226;2022-09-09T06:16:15;96571.63;;;17.37;100.00
3590;BME280;1809;48.470;9.226;2022-09-09T06:18:42;96574.00;;;17.26;100.00
3590;BME280;1809;48.470;9.226;2022-09-09T06:21:19;96572.91;;;17.15;100.00
3590;BME280;1809;48.470;9.226;2022-09-09T06:23:46;96579.19;;;17.07;100.00
3590;BME280;1809;48.470;9.226;2022-09-09T06:26:15;96579.66;;;17.09;100.00
3590;BME280;1809;48.470;9.226;2022-09-09T06:28:41;96574.56;;;17.07;100.00
3590;BME280;1809;48.470;9.226;2022-09-09T06:31:10;96574.56;;;17.07;100.00
3590;BME280;1809;48.470;9.226;2022-09-09T06:33:39;96565.91;;;17.14;100.00
3590;BME280;1809;48.470;9.226;2022-09-09T06:36:07;96574.69;;;17.23;100.00
3590;BME280;1809;48.470;9.226;2022-09-09T06:38:35;96572.03;;;17.51;100.00
3590;BME280;1809;48.470;9.226;2022-09-09T06:41:00;96575.88;;;17.74;100.00
3590;BME280;1809;48.470;9.226;2022-09-09T06:43:26;96582.66;;;18.67;100.00
3590;BME280;1809;48.470;9.226;2022-09-09T06:48:23;96585.94;;;19.93;100.00
3590;BME280;1809;48.470;9.226;2022-09-09T06:51:08;96583.75;;;20.17;100.00
3590;BME280;1809;48.470;9.226;2022-09-09T06:53:35;96588.03;;;20.18;100.00
3590;BME280;1809;48.470;9.226;2022-09-09T06:56:02;96591.59;;;19.84;100.00
3590;BME280;1809;48.470;9.226;2022-09-09T06:58:40;96590.81;;;19.64;100.00
3590;BME280;1809;48.470;9.226;2022-09-09T07:01:13;96590.56;;;19.54;100.00
3590;BME280;1809;48.470;9.226;2022-09-09T07:03:40;96584.97;;;19.31;100.00
3590;BME280;1809;48.470;9.226;2022-09-09T07:06:08;96597.31;;;19.44;100.00
3590;BME280;1809;48.470;9.226;2022-09-09T07:08:34;96597.50;;;19.20;100.00
3590;BME280;1809;48.470;9.226;2022-09-09T07:11:07;96595.84;;;19.15;100.00
3590;BME280;1809;48.470;9.226;2022-09-09T07:13:34;96593.19;;;19.34;100.00
3590;BME280;1809;48.470;9.226;2022-09-09T07:16:14;96586.97;;;19.50;100.00
3590;BME280;1809;48.470;9.226;2022-09-09T07:18:40;96586.09;;;19.61;100.00
3590;BME280;1809;48.470;9.226;2022-09-09T07:21:07;96586.31;;;20.10;100.00
3590;BME280;1809;48.470;9.226;2022-09-09T07:23:33;96581.72;;;20.53;100.00
3590;BME280;1809;48.470;9.226;2022-09-09T07:26:01;96587.22;;;20.79;100.00
3590;BME280;1809;48.470;9.226;2022-09-09T07:28:26;96575.50;;;20.98;100.00
3590;BME280;1809;48.470;9.226;2022-09-09T07:30:58;96583.91;;;20.89;100.00
3590;BME280;1809;48.470;9.226;2022-09-09T07:33:25;96583.72;;;20.56;100.00
3590;BME280;1809;48.470;9.226;2022-09-09T07:35:51;96603.28;;;20.87;100.00
3590;BME280;1809;48.470;9.226;2022-09-09T07:38:17;96606.50;;;20.93;100.00
3590;BME280;1809;48.470;9.226;2022-09-09T07:40:43;96611.19;;;20.96;100.00
3590;BME280;1809;48.470;9.226;2022-09-09T07:43:08;96612.69;;;21.13;100.00
3590;BME280;1809;48.470;9.226;2022-09-09T07:45:34;96615.25;;;21.28;100.00
3590;BME280;1809;48.470;9.226;2022-09-09T07:48:00;96617.06;;;21.43;100.00
3590;BME280;1809;48.470;9.226;2022-09-09T07:50:26;96621.28;;;21.41;100.00
3590;BME280;1809;48.470;9.226;2022-09-09T07:52:52;96624.03;;;20.73;100.00
3590;BME280;1809;48.470;9.226;2022-09-09T07:55:19;96619.50;;;20.38;100.00
3590;BME280;1809;48.470;9.226;2022-09-09T07:57:45;96623.78;;;20.20;100.00
3590;BME280;1809;48.470;9.226;2022-09-09T08:00:11;96610.19;;;20.01;100.00
3590;BME280;1809;48.470;9.226;2022-09-09T08:02:38;96623.50;;;20.45;100.00
3590;BME280;1809;48.470;9.226;2022-09-09T08:05:03;96614.22;;;20.68;100.00
3590;BME280;1809;48.470;9.226;2022-09-09T08:07:30;96622.69;;;20.86;100.00
3590;BME280;1809;48.470;9.226;2022-09-09T08:09:55;96626.97;;;20.87;100.00
3590;BME280;1809;48.470;9.226;2022-09-09T08:12:22;96629.63;;;20.83;100.00
3590;BME280;1809;48.470;9.226;2022-09-09T08:14:48;96629.44;;;20.73;100.00
3590;BME280;1809;48.470;9.226;2022-09-09T08:17:14;96625.84;;;20.88;100.00
3590;BME280;1809;48.470;9.226;2022-09-09T08:19:39;96624.94;;;21.26;100.00
3590;BME280;1809;48.470;9.226;2022-09-09T08:22:06;96627.59;;;21.49;100.00
3590;BME280;1809;48.470;9.226;2022-09-09T08:24:31;96632.97;;;21.41;100.00
3590;BME280;1809;48.470;9.226;2022-09-09T08:26:56;96635.06;;;21.06;100.00
3590;BME280;1809;48.470;9.226;2022-09-09T08:29:23;96632.78;;;21.08;100.00
3590;BME280;1809;48.470;9.226;2022-09-09T08:31:53;96638.84;;;21.21;100.00
3590;BME280;1809;48.470;9.226;2022-09-09T08:34:23;96637.50;;;21.11;100.00
3590;BME280;1809;48.470;9.226;2022-09-09T08:36:50;96643.66;;;21.08;100.00
3590;BME280;1809;48.470;9.226;2022-09-09T08:39:18;96643.16;;;21.03;100.00
3590;BME280;1809;48.470;9.226;2022-09-09T08:42:03;96653.94;;;20.54;100.00
3590;BME280;1809;48.470;9.226;2022-09-09T08:47:35;96657.38;;;20.31;100.00
3590;BME280;1809;48.470;9.226;2022-09-09T08:50:19;96649.72;;;20.37;100.00
3590;BME280;1809;48.470;9.226;2022-09-09T08:53:05;96651.56;;;20.52;100.00
3590;BME280;1809;48.470;9.226;2022-09-09T08:55:48;96644.31;;;20.79;100.00
3590;BME280;1809;48.470;9.226;2022-09-09T08:58:19;96641.41;;;21.10;100.00
3590;BME280;1809;48.470;9.226;2022-09-09T09:03:30;96644.06;;;21.56;100.00
3590;BME280;1809;48.470;9.226;2022-09-09T09:06:36;96645.09;;;21.74;100.00
3590;BME280;1809;48.470;9.226;2022-09-09T09:09:28;96645.22;;;22.40;100.00
3590;BME280;1809;48.470;9.226;2022-09-09T09:11:58;96642.34;;;22.60;100.00
3590;BME280;1809;48.470;9.226;2022-09-09T09:14:28;96643.13;;;22.64;100.00
3590;BME280;1809;48.470;9.226;2022-09-09T09:17:00;96637.38;;;22.35;100.00
3590;BME280;1809;48.470;9.226;2022-09-09T09:19:28;96623.03;;;22.09;100.00
3590;BME280;1809;48.470;9.226;2022-09-09T09:24:53;96618.09;;;21.35;100.00
3590;BME280;1809;48.470;9.226;2022-09-09T09:27:31;96625.44;;;21.09;100.00
3590;BME280;1809;48.470;9.226;2022-09-09T09:29:58;96629.47;;;21.18;100.00
3590;BME280;1809;48.470;9.226;2022-09-09T09:32:26;96624.47;;;21.47;100.00
3590;BME280;1809;48.470;9.226;2022-09-09T09:34:58;96628.25;;;21.65;100.00
3590;BME280;1809;48.470;9.226;2022-09-09T09:37:30;96641.97;;;21.72;100.00
3590;BME280;1809;48.470;9.226;2022-09-09T09:39:56;96637.94;;;21.62;100.00
3590;BME280;1809;48.470;9.226;2022-09-09T09:42:32;96630.22;;;21.68;100.00
3590;BME280;1809;48.470;9.226;2022-09-09T09:45:17;96627.59;;;21.49;100.00
3590;BME280;1809;48.470;9.226;2022-09-09T09:47:46;96629.72;;;21.59;100.00
3590;BME280;1809;48.470;9.226;2022-09-09T09:50:19;96624.94;;;21.78;100.00
3590;BME280;1809;48.470;9.226;2022-09-09T09:52:54;96629.31;;;22.13;100.00
3590;BME280;1809;48.470;9.226;2022-09-09T09:55:21;96631.16;;;22.05;100.00
3590;BME280;1809;48.470;9.226;2022-09-09T09:57:47;96626.31;;;22.21;100.00
3590;BME280;1809;48.470;9.226;2022-09-09T10:00:14;96627.16;;;22.25;100.00
3590;BME280;1809;48.470;9.226;2022-09-09T10:02:43;96617.28;;;22.17;100.00
3590;BME280;1809;48.470;9.226;2022-09-09T10:05:20;96620.03;;;22.17;100.00
3590;BME280;1809;48.470;9.226;2022-09-09T10:07:46;96615.09;;;21.96;100.00
3590;BME280;1809;48.470;9.226;2022-09-09T10:10:18;96615.84;;;21.93;100.00
3590;BME280;1809;48.470;9.226;2022-09-09T10:13:07;96625.53;;;21.91;100.00
3590;BME280;1809;48.470;9.226;2022-09-09T10:18:35;96626.53;;;21.79;100.00
3590;BME280;1809;48.470;9.226;2022-09-09T10:21:13;96617.75;;;21.63;100.00
3590;BME280;1809;48.470;9.226;2022-09-09T10:27:09;96622.00;;;21.64;100.00
3590;BME280;1809;48.470;9.226;2022-09-09T10:55:39;96601.03;;;21.91;100.00
3590;BME280;1809;48.470;9.226;2022-09-09T10:58:11;96588.56;;;21.90;100.00
3590;BME280;1809;48.470;9.226;2022-09-09T11:00:52;96588.13;;;22.18;100.00
3590;BME280;1809;48.470;9.226;2022-09-09T11:03:22;96580.53;;;22.34;100.00
3590;BME280;1809;48.470;9.226;2022-09-09T11:05:53;96589.47;;;22.68;100.00
3590;BME280;1809;48.470;9.226;2022-09-09T11:08:25;96584.88;;;22.75;100.00
3590;BME280;1809;48.470;9.226;2022-09-09T11:11:04;96584.19;;;22.89;100.00
3590;BME280;1809;48.470;9.226;2022-09-09T11:14:30;96583.25;;;22.71;100.00
3590;BME280;1809;48.470;9.226;2022-09-09T11:16:48;96598.13;;;22.77;100.00
3590;BME280;1809;48.470;9.226;2022-09-09T11:24:53;96599.38;;;22.49;100.00
3590;BME280;1809;48.470;9.226;2022-09-09T11:32:51;96593.66;;;23.46;100.00
3590;BME280;1809;48.470;9.226;2022-09-09T11:38:21;96627.94;;;22.63;100.00
3590;BME280;1809;48.470;9.226;2022-09-09T11:41:01;96607.31;;;21.69;100.00
3590;BME280;1809;48.470;9.226;2022-09-09T11:43:54;96628.13;;;21.31;100.00
3590;BME280;1809;48.470;9.226;2022-09-09T11:46:22;96616.28;;;21.20;100.00
3590;BME280;1809;48.470;9.226;2022-09-09T11:49:00;96616.34;;;21.24;100.00
3590;BME280;1809;48.470;9.226;2022-09-09T11:51:27;96617.13;;;21.24;100.00
3590;BME280;1809;48.470;9.226;2022-09-09T11:56:41;96612.97;;;21.57;100.00
3590;BME280;1809;48.470;9.226;2022-09-09T11:59:22;96620.38;;;21.86;100.00
3590;BME280;1809;48.470;9.226;2022-09-09T12:01:54;96616.31;;;21.73;100.00
3590;BME280;1809;48.470;9.226;2022-09-09T12:09:46;96623.38;;;22.37;100.00
3590;BME280;1809;48.470;9.226;2022-09-09T12:17:24;96616.94;;;22.89;100.00
3590;BME280;1809;48.470;9.226;2022-09-09T12:26:00;96612.09;;;22.72;100.00
3590;BME280;1809;48.470;9.226;2022-09-09T12:34:17;96606.47;;;22.58;100.00
3590;BME280;1809;48.470;9.226;2022-09-09T12:36:52;96599.19;;;22.32;100.00
3590;BME280;1809;48.470;9.226;2022-09-09T12:39:30;96607.22;;;22.55;100.00
3590;BME280;1809;48.470;9.226;2022-09-09T12:41:59;96595.84;;;22.82;100.00
3590;BME280;1809;48.470;9.226;2022-09-09T12:44:25;96603.38;;;22.96;100.00
3590;BME280;1809;48.470;9.226;2022-09-09T12:46:53;96599.03;;;22.88;100.00
3590;BME280;1809;48.470;9.226;2022-09-09T12:54:22;96613.38;;;22.48;100.00
3590;BME280;1809;48.470;9.226;2022-09-09T12:56:48;96613.22;;;22.34;100.00
3590;BME280;1809;48.470;9.226;2022-09-09T12:59:26;96609.06;;;22.43;100.00
3590;BME280;1809;48.470;9.226;2022-09-09T13:01:56;96612.22;;;22.49;100.00
3590;BME280;1809;48.470;9.226;2022-09-09T13:04:21;96604.16;;;22.60;100.00
3590;BME280;1809;48.470;9.226;2022-09-09T13:06:47;96597.97;;;22.63;100.00
3590;BME280;1809;48.470;9.226;2022-09-09T13:09:14;96604.13;;;22.56;100.00
3590;BME280;1809;48.470;9.226;2022-09-09T13:11:42;96597.31;;;22.73;100.00
3590;BME280;1809;48.470;9.226;2022-09-09T13:14:22;96590.84;;;22.88;100.00
3590;BME280;1809;48.470;9.226;2022-09-09T13:16:58;96594.41;;;22.95;100.00
3590;BME280;1809;48.470;9.226;2022-09-09T13:19:24;96585.28;;;23.25;100.00
3590;BME280;1809;48.470;9.226;2022-09-09T13:21:54;96585.44;;;23.42;100.00
3590;BME280;1809;48.470;9.226;2022-09-09T13:27:01;96573.44;;;23.03;100.00
3590;BME280;1809;48.470;9.226;2022-09-09T13:29:27;96568.81;;;23.14;100.00
3590;BME280;1809;48.470;9.226;2022-09-09T13:31:53;96575.56;;;23.27;100.00
3590;BME280;1809;48.470;9.226;2022-09-09T13:36:50;96569.94;;;23.61;100.00
3590;BME280;1809;48.470;9.226;2022-09-09T13:39:16;96574.00;;;23.88;100.00
3590;BME280;1809;48.470;9.226;2022-09-09T13:41:44;96575.16;;;23.87;100.00
3590;BME280;1809;48.470;9.226;2022-09-09T13:44:27;96573.13;;;23.70;100.00
3590;BME280;1809;48.470;9.226;2022-09-09T13:49:41;96559.06;;;23.68;100.00
3590;BME280;1809;48.470;9.226;2022-09-09T13:52:17;96558.00;;;23.25;100.00
3590;BME280;1809;48.470;9.226;2022-09-09T13:54:48;96560.03;;;23.35;100.00
3590;BME280;1809;48.470;9.226;2022-09-09T13:57:19;96568.50;;;23.23;100.00
3590;BME280;1809;48.470;9.226;2022-09-09T13:59:46;96560.31;;;23.19;100.00
3590;BME280;1809;48.470;9.226;2022-09-09T14:02:12;96559.44;;;23.08;100.00
3590;BME280;1809;48.470;9.226;2022-09-09T14:04:37;96552.50;;;23.21;100.00
3590;BME280;1809;48.470;9.226;2022-09-09T14:07:03;96549.59;;;23.47;100.00
3590;BME280;1809;48.470;9.226;2022-09-09T14:09:28;96550.75;;;23.46;100.00
3590;BME280;1809;48.470;9.226;2022-09-09T14:11:54;96555.03;;;23.40;100.00
3590;BME280;1809;48.470;9.226;2022-09-09T14:14:20;96550.78;;;22.99;100.00
3590;BME280;1809;48.470;9.226;2022-09-09T14:16:45;96551.94;;;22.94;100.00
3590;BME280;1809;48.470;9.226;2022-09-09T14:19:11;96545.22;;;22.85;100.00
3590;BME280;1809;48.470;9.226;2022-09-09T14:21:36;96539.81;;;22.92;100.00
3590;BME280;1809;48.470;9.226;2022-09-09T14:24:02;96548.97;;;22.70;100.00
3590;BME280;1809;48.470;9.226;2022-09-09T14:26:27;96544.16;;;22.56;100.00
3590;BME280;1809;48.470;9.226;2022-09-09T14:28:55;96545.78;;;22.64;100.00
3590;BME280;1809;48.470;9.226;2022-09-09T14:31:22;96554.31;;;22.99;100.00
3590;BME280;1809;48.470;9.226;2022-09-09T14:33:48;96552.22;;;22.86;100.00
3590;BME280;1809;48.470;9.226;2022-09-09T14:36:13;96549.88;;;22.81;100.00
3590;BME280;1809;48.470;9.226;2022-09-09T14:38:39;96564.59;;;22.73;100.00
3590;BME280;1809;48.470;9.226;2022-09-09T14:41:10;96556.03;;;22.74;100.00
3590;BME280;1809;48.470;9.226;2022-09-09T14:43:39;96555.59;;;22.69;100.00
3590;BME280;1809;48.470;9.226;2022-09-09T14:46:13;96563.28;;;23.00;100.00
3590;BME280;1809;48.470;9.226;2022-09-09T14:48:39;96550.69;;;22.85;100.00
3590;BME280;1809;48.470;9.226;2022-09-09T14:51:10;96553.81;;;22.87;100.00
3590;BME280;1809;48.470;9.226;2022-09-09T14:53:36;96561.72;;;23.02;100.00
3590;BME280;1809;48.470;9.226;2022-09-09T14:56:07;96560.84;;;22.88;100.00
3590;BME280;1809;48.470;9.226;2022-09-09T14:58:33;96567.19;;;23.02;100.00
3590;BME280;1809;48.470;9.226;2022-09-09T15:03:29;96557.06;;;22.22;100.00
3590;BME280;1809;48.470;9.226;2022-09-09T15:05:54;96567.94;;;22.22;100.00
3590;BME280;1809;48.470;9.226;2022-09-09T15:08:19;96568.59;;;22.12;100.00
3590;BME280;1809;48.470;9.226;2022-09-09T15:10:45;96565.72;;;21.98;100.00
3590;BME280;1809;48.470;9.226;2022-09-09T15:13:14;96570.09;;;22.06;100.00
3590;BME280;1809;48.470;9.226;2022-09-09T15:15:39;96563.91;;;22.09;100.00
3590;BME280;1809;48.470;9.226;2022-09-09T15:18:06;96563.09;;;22.09;100.00
3590;BME280;1809;48.470;9.226;2022-09-09T15:20:31;96575.94;;;22.41;100.00
3590;BME280;1809;48.470;9.226;2022-09-09T15:22:57;96564.06;;;22.60;100.00
3590;BME280;1809;48.470;9.226;2022-09-09T15:25:22;96575.25;;;22.51;100.00
3590;BME280;1809;48.470;9.226;2022-09-09T15:27:47;96574.28;;;22.33;100.00
3590;BME280;1809;48.470;9.226;2022-09-09T15:30:13;96570.94;;;22.10;100.00
3590;BME280;1809;48.470;9.226;2022-09-09T15:32:38;96573.41;;;21.92;100.00
3590;BME280;1809;48.470;9.226;2022-09-09T15:35:05;96571.59;;;21.74;100.00